sensor_id;sensor_type;location;lat;lon;timestamp;pressure;altitude;pressure_sealevel;temperature;humidity
18527;BME280;9393;42.158;24.748;2023-07-08T00:02:32;99447.97;;;25.76;63.02
18527;BME280;9393;42.158;24.748;2023-07-08T00:05:36;99442.91;;;25.74;62.89
18527;BME280;9393;42.158;24.748;2023-07-08T00:08:41;99432.75;;;25.76;62.35
18527;BME280;9393;42.158;24.748;2023-07-08T00:11:44;99446.59;;;25.73;62.49
18527;BME280;9393;42.158;24.748;2023-07-08T00:14:48;99447.03;;;25.65;62.46
18527;BME280;9393;42.158;24.748;2023-07-08T00:17:51;99452.50;;;25.58;62.56
18527;BME280;9393;42.158;24.748;2023-07-08T00:20:55;99446.28;;;25.70;62.14
18527;BME280;9393;42.158;24.748;2023-07-08T00:24:03;99451.63;;;25.86;61.32
18527;BME280;9393;42.158;24.748;2023-07-08T00:27:09;99446.38;;;25.91;60.94
18527;BME280;9393;42.158;24.748;2023-07-08T00:30:19;99437.78;;;25.89;60.86
18527;BME280;9393;42.158;24.748;2023-07-08T00:33:23;99437.63;;;25.79;60.73
18527;BME280;9393;42.158;24.748;2023-07-08T00:36:27;99446.94;;;25.93;60.25
18527;BME280;9393;42.158;24.748;2023-07-08T00:39:32;99449.69;;;25.82;60.92
18527;BME280;9393;42.158;24.748;2023-07-08T00:42:36;99447.34;;;25.85;60.66
18527;BME280;9393;42.158;24.748;2023-07-08T00:45:45;99450.97;;;25.79;60.91
18527;BME280;9393;42.158;24.748;2023-07-08T00:49:17;99453.75;;;25.84;60.72
18527;BME280;9393;42.158;24.748;2023-07-08T00:52:26;99465.97;;;25.80;60.86
18527;BME280;9393;42.158;24.748;2023-07-08T00:55:31;99465.31;;;25.90;60.40
18527;BME280;9393;42.158;24.748;2023-07-08T00:58:39;99462.94;;;25.60;61.41
18527;BME280;9393;42.158;24.748;2023-07-08T01:01:45;99468.06;;;25.61;61.39
18527;BME280;9393;42.158;24.748;2023-07-08T01:04:52;99455.91;;;25.54;61.61
18527;BME280;9393;42.158;24.748;2023-07-08T01:08:01;99465.78;;;25.53;61.77
18527;BME280;9393;42.158;24.748;2023-07-08T01:11:07;99475.88;;;25.51;61.96
18527;BME280;9393;42.158;24.748;2023-07-08T01:14:14;99478.31;;;25.41;62.19
18527;BME280;9393;42.158;24.748;2023-07-08T01:17:20;99470.88;;;25.27;62.30
18527;BME280;9393;42.158;24.748;2023-07-08T01:20:24;99477.81;;;25.28;62.44
18527;BME280;9393;42.158;24.748;2023-07-08T01:23:30;99472.88;;;25.20;62.52
18527;BME280;9393;42.158;24.748;2023-07-08T01:26:36;99477.31;;;25.31;62.15
18527;BME280;9393;42.158;24.748;2023-07-08T01:29:42;99478.44;;;25.18;62.47
18527;BME280;9393;42.158;24.748;2023-07-08T01:32:50;99481.25;;;25.11;62.66
18527;BME280;9393;42.158;24.748;2023-07-08T01:35:56;99472.94;;;25.25;62.08
18527;BME280;9393;42.158;24.748;2023-07-08T01:39:01;99474.31;;;25.27;61.87
18527;BME280;9393;42.158;24.748;2023-07-08T01:42:04;99475.31;;;25.38;61.53
18527;BME280;9393;42.158;24.748;2023-07-08T01:45:11;99476.94;;;25.39;61.43
18527;BME280;9393;42.158;24.748;2023-07-08T01:48:18;99484.56;;;25.30;61.77
18527;BME280;9393;42.158;24.748;2023-07-08T01:51:23;99485.41;;;25.19;62.17
18527;BME280;9393;42.158;24.748;2023-07-08T01:54:29;99482.75;;;25.07;62.57
18527;BME280;9393;42.158;24.748;2023-07-08T01:57:33;99482.38;;;25.16;62.53
18527;BME280;9393;42.158;24.748;2023-07-08T02:00:36;99486.28;;;25.25;62.21
18527;BME280;9393;42.158;24.748;2023-07-08T02:03:40;99488.72;;;25.26;61.71
18527;BME280;9393;42.158;24.748;2023-07-08T02:06:51;99503.06;;;25.08;62.25
18527;BME280;9393;42.158;24.748;2023-07-08T02:09:56;99495.94;;;25.26;61.47
18527;BME280;9393;42.158;24.748;2023-07-08T02:12:59;99509.75;;;25.23;61.62
18527;BME280;9393;42.158;24.748;2023-07-08T02:16:03;99491.44;;;25.14;61.84
18527;BME280;9393;42.158;24.748;2023-07-08T02:19:09;99503.81;;;25.21;61.67
18527;BME280;9393;42.158;24.748;2023-07-08T02:22:13;99508.31;;;24.92;62.08
18527;BME280;9393;42.158;24.748;2023-07-08T02:25:19;99506.09;;;25.00;62.35
18527;BME280;9393;42.158;24.748;2023-07-08T02:28:23;99503.91;;;24.97;62.18
18527;BME280;9393;42.158;24.748;2023-07-08T02:31:26;99504.69;;;25.09;62.00
18527;BME280;9393;42.158;24.748;2023-07-08T02:34:31;99511.38;;;25.24;61.50
18527;BME280;9393;42.158;24.748;2023-07-08T02:37:35;99515.56;;;25.20;61.32
18527;BME280;9393;42.158;24.748;2023-07-08T02:40:40;99516.03;;;25.17;61.11
18527;BME280;9393;42.158;24.748;2023-07-08T02:43:43;99519.22;;;24.90;62.30
18527;BME280;9393;42.158;24.748;2023-07-08T02:46:47;99517.50;;;24.84;62.04
18527;BME280;9393;42.158;24.748;2023-07-08T02:49:51;99523.50;;;25.03;61.77
18527;BME280;9393;42.158;24.748;2023-07-08T02:52:56;99525.59;;;24.89;61.83
18527;BME280;9393;42.158;24.748;2023-07-08T02:56:01;99531.53;;;24.91;61.80
18527;BME280;9393;42.158;24.748;2023-07-08T02:59:05;99540.56;;;24.90;61.35
18527;BME280;9393;42.158;24.748;2023-07-08T03:02:09;99533.72;;;24.83;61.84
18527;BME280;9393;42.158;24.748;2023-07-08T03:05:13;99540.22;;;24.75;61.89
18527;BME280;9393;42.158;24.748;2023-07-08T03:08:17;99537.91;;;24.67;62.12
18527;BME280;9393;42.158;24.748;2023-07-08T03:11:22;99543.69;;;24.87;61.28
18527;BME280;9393;42.158;24.748;2023-07-08T03:14:25;99545.97;;;25.07;60.86
18527;BME280;9393;42.158;24.748;2023-07-08T03:17:29;99551.78;;;25.04;60.99
18527;BME280;9393;42.158;24.748;2023-07-08T03:20:33;99554.72;;;25.02;60.79
18527;BME280;9393;42.158;24.748;2023-07-08T03:23:38;99551.44;;;24.77;61.80
18527;BME280;9393;42.158;24.748;2023-07-08T03:26:45;99562.34;;;24.52;62.44
18527;BME280;9393;42.158;24.748;2023-07-08T03:29:49;99560.25;;;24.66;62.61
18527;BME280;9393;42.158;24.748;2023-07-08T03:32:53;99565.00;;;24.76;61.80
18527;BME280;9393;42.158;24.748;2023-07-08T03:35:57;99573.34;;;24.79;61.53
18527;BME280;9393;42.158;24.748;2023-07-08T03:39:01;99569.09;;;24.67;62.13
18527;BME280;9393;42.158;24.748;2023-07-08T03:42:06;99578.84;;;24.84;61.37
18527;BME280;9393;42.158;24.748;2023-07-08T03:45:10;99583.59;;;24.82;61.58
18527;BME280;9393;42.158;24.748;2023-07-08T03:48:14;99587.91;;;24.95;61.13
18527;BME280;9393;42.158;24.748;2023-07-08T03:51:22;99586.47;;;25.04;60.97
18527;BME280;9393;42.158;24.748;2023-07-08T03:54:26;99592.75;;;25.09;60.82
18527;BME280;9393;42.158;24.748;2023-07-08T03:57:33;99596.50;;;24.85;61.61
18527;BME280;9393;42.158;24.748;2023-07-08T04:00:37;99593.81;;;24.85;61.50
18527;BME280;9393;42.158;24.748;2023-07-08T04:03:42;99606.66;;;24.77;62.35
18527;BME280;9393;42.158;24.748;2023-07-08T04:06:46;99604.31;;;24.69;62.33
18527;BME280;9393;42.158;24.748;2023-07-08T04:09:52;99606.31;;;24.96;61.33
18527;BME280;9393;42.158;24.748;2023-07-08T04:12:57;99613.03;;;25.10;61.16
18527;BME280;9393;42.158;24.748;2023-07-08T04:16:02;99609.44;;;24.93;61.84
18527;BME280;9393;42.158;24.748;2023-07-08T04:19:07;99610.34;;;25.22;60.77
18527;BME280;9393;42.158;24.748;2023-07-08T04:22:16;99618.22;;;25.40;60.09
18527;BME280;9393;42.158;24.748;2023-07-08T04:25:20;99622.34;;;25.71;59.06
18527;BME280;9393;42.158;24.748;2023-07-08T04:28:31;99620.47;;;26.00;58.53
18527;BME280;9393;42.158;24.748;2023-07-08T04:31:35;99621.28;;;26.29;57.46
18527;BME280;9393;42.158;24.748;2023-07-08T04:34:38;99610.13;;;26.65;56.34
18527;BME280;9393;42.158;24.748;2023-07-08T04:37:42;99599.25;;;26.72;nan
18527;BME280;9393;42.158;24.748;2023-07-08T04:40:46;99597.03;;;27.02;55.39
18527;BME280;9393;42.158;24.748;2023-07-08T04:43:51;99602.97;;;26.87;54.96
18527;BME280;9393;42.158;24.748;2023-07-08T04:46:56;99591.88;;;27.39;53.89
18527;BME280;9393;42.158;24.748;2023-07-08T04:50:00;99596.25;;;27.23;53.99
18527;BME280;9393;42.158;24.748;2023-07-08T04:53:03;99585.44;;;26.80;55.34
18527;BME280;9393;42.158;24.748;2023-07-08T04:56:07;99589.69;;;27.14;54.40
18527;BME280;9393;42.158;24.748;2023-07-08T04:59:15;99576.22;;;27.31;53.58
18527;BME280;9393;42.158;24.748;2023-07-08T05:02:19;99579.84;;;27.41;53.74
18527;BME280;9393;42.158;24.748;2023-07-08T05:05:23;99591.00;;;27.11;54.50
18527;BME280;9393;42.158;24.748;2023-07-08T05:08:27;99576.03;;;26.77;54.73
18527;BME280;9393;42.158;24.748;2023-07-08T05:11:31;99573.63;;;26.92;54.58
18527;BME280;9393;42.158;24.748;2023-07-08T05:14:36;99574.00;;;27.23;53.70
18527;BME280;9393;42.158;24.748;2023-07-08T05:17:41;99584.09;;;27.37;53.53
18527;BME280;9393;42.158;24.748;2023-07-08T05:20:50;99584.19;;;27.69;52.45
18527;BME280;9393;42.158;24.748;2023-07-08T05:23:54;99580.41;;;27.65;52.47
18527;BME280;9393;42.158;24.748;2023-07-08T05:26:58;99583.47;;;27.52;52.55
18527;BME280;9393;42.158;24.748;2023-07-08T05:30:05;99588.06;;;27.78;52.54
18527;BME280;9393;42.158;24.748;2023-07-08T05:33:09;99576.22;;;28.01;51.58
18527;BME280;9393;42.158;24.748;2023-07-08T05:36:13;99581.06;;;28.31;50.92
18527;BME280;9393;42.158;24.748;2023-07-08T05:39:17;99573.19;;;28.19;51.52
18527;BME280;9393;42.158;24.748;2023-07-08T05:42:21;99577.59;;;28.30;50.58
18527;BME280;9393;42.158;24.748;2023-07-08T05:45:26;99570.84;;;28.01;50.66
18527;BME280;9393;42.158;24.748;2023-07-08T05:48:30;99574.34;;;28.28;50.01
18527;BME280;9393;42.158;24.748;2023-07-08T05:51:35;99561.16;;;27.95;50.83
18527;BME280;9393;42.158;24.748;2023-07-08T05:54:40;99552.28;;;28.21;50.39
18527;BME280;9393;42.158;24.748;2023-07-08T05:57:45;99550.66;;;28.15;50.26
18527;BME280;9393;42.158;24.748;2023-07-08T06:00:55;99560.50;;;28.41;50.09
18527;BME280;9393;42.158;24.748;2023-07-08T06:04:00;99567.66;;;28.31;50.06
18527;BME280;9393;42.158;24.748;2023-07-08T06:07:04;99563.06;;;28.26;49.86
18527;BME280;9393;42.158;24.748;2023-07-08T06:10:08;99558.75;;;28.62;48.87
18527;BME280;9393;42.158;24.748;2023-07-08T06:13:13;99557.59;;;28.90;48.11
18527;BME280;9393;42.158;24.748;2023-07-08T06:16:18;99558.94;;;28.82;48.22
18527;BME280;9393;42.158;24.748;2023-07-08T06:19:41;99549.13;;;28.66;48.23
18527;BME280;9393;42.158;24.748;2023-07-08T06:22:44;99548.78;;;28.94;48.17
18527;BME280;9393;42.158;24.748;2023-07-08T06:25:50;99558.13;;;28.87;48.06
18527;BME280;9393;42.158;24.748;2023-07-08T06:28:54;99555.88;;;28.69;48.31
18527;BME280;9393;42.158;24.748;2023-07-08T06:32:00;99551.31;;;29.21;47.11
18527;BME280;9393;42.158;24.748;2023-07-08T06:35:04;99540.34;;;29.28;47.52
18527;BME280;9393;42.158;24.748;2023-07-08T06:38:10;99544.03;;;29.12;47.07
18527;BME280;9393;42.158;24.748;2023-07-08T06:41:13;99552.75;;;29.34;46.73
18527;BME280;9393;42.158;24.748;2023-07-08T06:44:17;99560.59;;;29.66;45.11
18527;BME280;9393;42.158;24.748;2023-07-08T06:47:23;99558.09;;;29.29;45.73
18527;BME280;9393;42.158;24.748;2023-07-08T06:50:26;99556.63;;;29.06;46.33
18527;BME280;9393;42.158;24.748;2023-07-08T06:53:30;99555.44;;;29.39;45.75
18527;BME280;9393;42.158;24.748;2023-07-08T06:56:34;99552.75;;;29.34;46.08
18527;BME280;9393;42.158;24.748;2023-07-08T06:59:38;99553.34;;;29.56;45.35
18527;BME280;9393;42.158;24.748;2023-07-08T07:02:43;99547.72;;;29.68;44.89
18527;BME280;9393;42.158;24.748;2023-07-08T07:05:47;99560.88;;;29.59;44.21
18527;BME280;9393;42.158;24.748;2023-07-08T07:08:50;99563.94;;;30.03;43.99
18527;BME280;9393;42.158;24.748;2023-07-08T07:11:54;99564.47;;;29.95;43.33
18527;BME280;9393;42.158;24.748;2023-07-08T07:14:58;99565.00;;;30.02;43.11
18527;BME280;9393;42.158;24.748;2023-07-08T07:18:04;99576.31;;;30.09;43.24
18527;BME280;9393;42.158;24.748;2023-07-08T07:21:08;99570.66;;;30.26;43.02
18527;BME280;9393;42.158;24.748;2023-07-08T07:24:12;99581.34;;;29.80;44.10
18527;BME280;9393;42.158;24.748;2023-07-08T07:27:15;99581.22;;;29.35;45.33
18527;BME280;9393;42.158;24.748;2023-07-08T07:30:19;99582.09;;;28.98;45.97
18527;BME280;9393;42.158;24.748;2023-07-08T07:33:25;99590.94;;;29.46;45.50
18527;BME280;9393;42.158;24.748;2023-07-08T07:36:29;99596.00;;;29.37;45.06
18527;BME280;9393;42.158;24.748;2023-07-08T07:39:33;99593.47;;;29.16;45.64
18527;BME280;9393;42.158;24.748;2023-07-08T07:42:37;99590.97;;;28.99;45.82
18527;BME280;9393;42.158;24.748;2023-07-08T07:45:41;99587.78;;;29.79;44.95
18527;BME280;9393;42.158;24.748;2023-07-08T07:48:46;99592.19;;;30.26;43.70
18527;BME280;9393;42.158;24.748;2023-07-08T07:51:50;99588.44;;;30.42;43.06
18527;BME280;9393;42.158;24.748;2023-07-08T07:54:54;99598.09;;;30.38;43.28
18527;BME280;9393;42.158;24.748;2023-07-08T07:57:58;99592.16;;;30.31;42.81
18527;BME280;9393;42.158;24.748;2023-07-08T08:01:03;99599.72;;;30.64;42.64
18527;BME280;9393;42.158;24.748;2023-07-08T08:04:10;99601.84;;;30.92;41.68
18527;BME280;9393;42.158;24.748;2023-07-08T08:07:14;99605.03;;;31.15;40.89
18527;BME280;9393;42.158;24.748;2023-07-08T08:10:18;99607.47;;;31.11;40.28
18527;BME280;9393;42.158;24.748;2023-07-08T08:13:22;99597.75;;;31.10;40.26
18527;BME280;9393;42.158;24.748;2023-07-08T08:16:26;99615.03;;;31.09;40.55
18527;BME280;9393;42.158;24.748;2023-07-08T08:19:32;99609.34;;;31.16;39.87
18527;BME280;9393;42.158;24.748;2023-07-08T08:22:35;99604.00;;;30.85;40.87
18527;BME280;9393;42.158;24.748;2023-07-08T08:25:39;99593.22;;;30.90;40.35
18527;BME280;9393;42.158;24.748;2023-07-08T08:28:43;99594.28;;;30.89;40.45
18527;BME280;9393;42.158;24.748;2023-07-08T08:31:47;99602.88;;;31.06;39.80
18527;BME280;9393;42.158;24.748;2023-07-08T08:34:54;99594.16;;;31.35;39.98
18527;BME280;9393;42.158;24.748;2023-07-08T08:37:58;99592.34;;;31.79;39.37
18527;BME280;9393;42.158;24.748;2023-07-08T08:41:12;99603.03;;;31.99;38.48
18527;BME280;9393;42.158;24.748;2023-07-08T08:44:17;99603.81;;;31.46;38.78
18527;BME280;9393;42.158;24.748;2023-07-08T08:47:37;99595.53;;;31.86;37.96
18527;BME280;9393;42.158;24.748;2023-07-08T08:50:46;99605.59;;;32.20;37.08
18527;BME280;9393;42.158;24.748;2023-07-08T08:53:53;99606.31;;;31.32;38.44
18527;BME280;9393;42.158;24.748;2023-07-08T08:57:12;99602.09;;;30.96;39.64
18527;BME280;9393;42.158;24.748;2023-07-08T09:00:25;99614.69;;;31.21;38.95
18527;BME280;9393;42.158;24.748;2023-07-08T09:03:38;99617.34;;;31.41;38.38
18527;BME280;9393;42.158;24.748;2023-07-08T09:06:45;99625.50;;;31.16;38.80
18527;BME280;9393;42.158;24.748;2023-07-08T09:09:54;99631.47;;;30.62;39.50
18527;BME280;9393;42.158;24.748;2023-07-08T09:13:05;99622.09;;;30.65;40.10
18527;BME280;9393;42.158;24.748;2023-07-08T09:16:18;99616.94;;;30.63;39.71
18527;BME280;9393;42.158;24.748;2023-07-08T09:19:25;99615.91;;;30.54;40.01
18527;BME280;9393;42.158;24.748;2023-07-08T09:22:35;99621.81;;;30.71;40.43
18527;BME280;9393;42.158;24.748;2023-07-08T09:25:47;99615.09;;;30.53;39.78
18527;BME280;9393;42.158;24.748;2023-07-08T09:28:52;99611.56;;;30.73;39.91
18527;BME280;9393;42.158;24.748;2023-07-08T09:31:57;99607.22;;;30.92;39.73
18527;BME280;9393;42.158;24.748;2023-07-08T09:35:04;99600.31;;;31.45;38.06
18527;BME280;9393;42.158;24.748;2023-07-08T09:38:15;99585.94;;;31.70;37.86
18527;BME280;9393;42.158;24.748;2023-07-08T09:41:29;99586.44;;;31.77;37.74
18527;BME280;9393;42.158;24.748;2023-07-08T09:44:33;99569.75;;;32.14;37.39
18527;BME280;9393;42.158;24.748;2023-07-08T09:47:38;99568.22;;;32.37;37.37
18527;BME280;9393;42.158;24.748;2023-07-08T09:50:44;99573.38;;;33.15;36.27
18527;BME280;9393;42.158;24.748;2023-07-08T09:53:49;99569.81;;;32.95;35.39
18527;BME280;9393;42.158;24.748;2023-07-08T09:56:59;99565.09;;;33.30;35.80
18527;BME280;9393;42.158;24.748;2023-07-08T10:00:08;99572.63;;;33.51;35.24
18527;BME280;9393;42.158;24.748;2023-07-08T10:03:19;99560.81;;;33.47;35.89
18527;BME280;9393;42.158;24.748;2023-07-08T10:06:25;99560.19;;;33.74;34.04
18527;BME280;9393;42.158;24.748;2023-07-08T10:09:31;99562.13;;;33.50;35.21
18527;BME280;9393;42.158;24.748;2023-07-08T10:12:37;99554.50;;;33.52;34.53
18527;BME280;9393;42.158;24.748;2023-07-08T10:15:43;99549.31;;;33.37;34.52
18527;BME280;9393;42.158;24.748;2023-07-08T10:18:49;99544.09;;;33.22;34.62
18527;BME280;9393;42.158;24.748;2023-07-08T10:22:08;99548.31;;;32.85;34.92
18527;BME280;9393;42.158;24.748;2023-07-08T10:25:24;99530.91;;;33.39;34.64
18527;BME280;9393;42.158;24.748;2023-07-08T10:28:34;99536.56;;;33.61;34.70
18527;BME280;9393;42.158;24.748;2023-07-08T10:31:51;99535.47;;;33.81;34.08
18527;BME280;9393;42.158;24.748;2023-07-08T10:35:03;99537.34;;;33.80;33.71
18527;BME280;9393;42.158;24.748;2023-07-08T10:38:28;99532.69;;;33.67;33.96
18527;BME280;9393;42.158;24.748;2023-07-08T10:41:43;99516.88;;;33.37;34.80
18527;BME280;9393;42.158;24.748;2023-07-08T10:45:00;99514.47;;;33.17;34.99
18527;BME280;9393;42.158;24.748;2023-07-08T10:48:20;99504.03;;;33.05;34.61
18527;BME280;9393;42.158;24.748;2023-07-08T10:51:34;99503.44;;;33.32;34.43
18527;BME280;9393;42.158;24.748;2023-07-08T10:54:54;99506.34;;;33.91;34.04
18527;BME280;9393;42.158;24.748;2023-07-08T10:58:17;99504.44;;;33.92;33.37
18527;BME280;9393;42.158;24.748;2023-07-08T11:01:32;99504.63;;;33.63;33.47
18527;BME280;9393;42.158;24.748;2023-07-08T11:04:47;99498.56;;;34.03;33.70
18527;BME280;9393;42.158;24.748;2023-07-08T11:08:00;99496.72;;;33.85;33.33
18527;BME280;9393;42.158;24.748;2023-07-08T11:11:09;99494.13;;;34.13;32.04
18527;BME280;9393;42.158;24.748;2023-07-08T11:14:22;99488.41;;;34.28;32.06
18527;BME280;9393;42.158;24.748;2023-07-08T11:17:35;99486.53;;;34.56;32.52
18527;BME280;9393;42.158;24.748;2023-07-08T11:20:44;99490.75;;;34.48;32.17
18527;BME280;9393;42.158;24.748;2023-07-08T11:23:52;99499.28;;;34.55;32.54
18527;BME280;9393;42.158;24.748;2023-07-08T11:26:58;99486.75;;;33.99;33.26
18527;BME280;9393;42.158;24.748;2023-07-08T11:30:17;99490.44;;;34.36;33.35
18527;BME280;9393;42.158;24.748;2023-07-08T11:33:25;99488.28;;;33.87;33.51
18527;BME280;9393;42.158;24.748;2023-07-08T11:36:31;99484.75;;;34.05;32.74
18527;BME280;9393;42.158;24.748;2023-07-08T11:39:40;99475.88;;;34.32;32.92
18527;BME280;9393;42.158;24.748;2023-07-08T11:42:48;99466.00;;;33.76;33.34
18527;BME280;9393;42.158;24.748;2023-07-08T11:46:05;99471.38;;;33.44;34.03
18527;BME280;9393;42.158;24.748;2023-07-08T11:49:12;99481.50;;;33.52;34.22
18527;BME280;9393;42.158;24.748;2023-07-08T11:52:18;99469.88;;;33.14;34.64
18527;BME280;9393;42.158;24.748;2023-07-08T11:55:24;99466.63;;;33.55;34.16
18527;BME280;9393;42.158;24.748;2023-07-08T11:58:50;99474.16;;;33.20;34.62
18527;BME280;9393;42.158;24.748;2023-07-08T12:02:01;99475.91;;;33.30;34.08
18527;BME280;9393;42.158;24.748;2023-07-08T12:05:12;99478.28;;;33.87;33.55
18527;BME280;9393;42.158;24.748;2023-07-08T12:08:19;99473.53;;;34.12;32.65
18527;BME280;9393;42.158;24.748;2023-07-08T12:11:26;99474.59;;;34.43;32.96
18527;BME280;9393;42.158;24.748;2023-07-08T12:14:31;99459.47;;;33.96;33.20
18527;BME280;9393;42.158;24.748;2023-07-08T12:17:37;99466.53;;;33.60;33.86
18527;BME280;9393;42.158;24.748;2023-07-08T12:20:45;99477.72;;;33.53;33.67
18527;BME280;9393;42.158;24.748;2023-07-08T12:23:49;99464.81;;;33.82;33.47
18527;BME280;9393;42.158;24.748;2023-07-08T12:26:53;99459.28;;;32.99;34.06
18527;BME280;9393;42.158;24.748;2023-07-08T12:29:57;99459.97;;;32.86;34.29
18527;BME280;9393;42.158;24.748;2023-07-08T12:33:02;99459.78;;;33.01;34.70
18527;BME280;9393;42.158;24.748;2023-07-08T12:36:10;99463.34;;;32.96;34.74
18527;BME280;9393;42.158;24.748;2023-07-08T12:39:17;99470.78;;;33.28;34.71
18527;BME280;9393;42.158;24.748;2023-07-08T12:42:21;99480.34;;;33.21;33.99
18527;BME280;9393;42.158;24.748;2023-07-08T12:45:25;99488.16;;;33.78;33.03
18527;BME280;9393;42.158;24.748;2023-07-08T12:48:33;99495.81;;;33.90;32.98
18527;BME280;9393;42.158;24.748;2023-07-08T12:51:37;99507.88;;;33.41;33.46
18527;BME280;9393;42.158;24.748;2023-07-08T12:54:40;99512.38;;;32.85;33.96
18527;BME280;9393;42.158;24.748;2023-07-08T12:57:46;99508.16;;;32.21;36.88
18527;BME280;9393;42.158;24.748;2023-07-08T13:00:51;99509.88;;;32.12;36.90
18527;BME280;9393;42.158;24.748;2023-07-08T13:04:00;99511.97;;;31.81;37.99
18527;BME280;9393;42.158;24.748;2023-07-08T13:07:05;99523.22;;;31.49;38.62
18527;BME280;9393;42.158;24.748;2023-07-08T13:10:19;99511.81;;;31.14;39.47
18527;BME280;9393;42.158;24.748;2023-07-08T13:13:27;99523.81;;;30.67;40.46
18527;BME280;9393;42.158;24.748;2023-07-08T13:16:33;99550.50;;;30.33;41.55
18527;BME280;9393;42.158;24.748;2023-07-08T13:19:40;99558.91;;;29.29;46.08
18527;BME280;9393;42.158;24.748;2023-07-08T13:22:50;99560.34;;;29.62;47.51
18527;BME280;9393;42.158;24.748;2023-07-08T13:25:55;99557.25;;;29.23;51.04
18527;BME280;9393;42.158;24.748;2023-07-08T13:29:00;99556.31;;;28.55;54.67
18527;BME280;9393;42.158;24.748;2023-07-08T13:32:05;99550.16;;;27.43;57.39
18527;BME280;9393;42.158;24.748;2023-07-08T13:35:23;99558.38;;;27.36;56.78
18527;BME280;9393;42.158;24.748;2023-07-08T13:38:32;99565.00;;;28.04;57.64
18527;BME280;9393;42.158;24.748;2023-07-08T13:41:36;99570.63;;;28.02;55.88
18527;BME280;9393;42.158;24.748;2023-07-08T13:44:44;99577.13;;;29.27;52.96
18527;BME280;9393;42.158;24.748;2023-07-08T13:47:58;99574.22;;;29.29;52.72
18527;BME280;9393;42.158;24.748;2023-07-08T13:51:07;99569.16;;;28.85;53.28
18527;BME280;9393;42.158;24.748;2023-07-08T13:54:20;99568.13;;;28.96;52.11
18527;BME280;9393;42.158;24.748;2023-07-08T13:57:29;99565.31;;;28.71;53.53
18527;BME280;9393;42.158;24.748;2023-07-08T14:00:34;99576.13;;;29.38;52.00
18527;BME280;9393;42.158;24.748;2023-07-08T14:03:39;99574.41;;;30.04;50.44
18527;BME280;9393;42.158;24.748;2023-07-08T14:06:45;99603.22;;;30.19;49.72
18527;BME280;9393;42.158;24.748;2023-07-08T14:09:49;99628.72;;;29.91;48.84
18527;BME280;9393;42.158;24.748;2023-07-08T14:12:53;99627.50;;;29.52;48.87
18527;BME280;9393;42.158;24.748;2023-07-08T14:15:57;99629.31;;;28.57;51.23
18527;BME280;9393;42.158;24.748;2023-07-08T14:19:02;99629.44;;;28.41;51.79
18527;BME280;9393;42.158;24.748;2023-07-08T14:22:20;99628.50;;;28.03;57.58
18527;BME280;9393;42.158;24.748;2023-07-08T14:25:25;99625.50;;;27.95;58.37
18527;BME280;9393;42.158;24.748;2023-07-08T14:28:29;99612.94;;;27.74;58.52
18527;BME280;9393;42.158;24.748;2023-07-08T14:31:33;99619.22;;;27.84;57.51
18527;BME280;9393;42.158;24.748;2023-07-08T14:34:37;99621.72;;;27.69;56.46
18527;BME280;9393;42.158;24.748;2023-07-08T14:37:42;99583.75;;;27.77;52.20
18527;BME280;9393;42.158;24.748;2023-07-08T14:40:46;99578.91;;;28.01;52.64
18527;BME280;9393;42.158;24.748;2023-07-08T14:43:51;99602.47;;;27.72;53.61
18527;BME280;9393;42.158;24.748;2023-07-08T14:46:55;99588.56;;;27.75;52.60
18527;BME280;9393;42.158;24.748;2023-07-08T14:50:00;99604.22;;;28.10;52.04
18527;BME280;9393;42.158;24.748;2023-07-08T14:53:05;99603.81;;;28.23;50.88
18527;BME280;9393;42.158;24.748;2023-07-08T14:56:13;99612.16;;;28.27;51.38
18527;BME280;9393;42.158;24.748;2023-07-08T14:59:21;99605.47;;;28.61;50.82
18527;BME280;9393;42.158;24.748;2023-07-08T15:02:26;99603.75;;;29.29;49.09
18527;BME280;9393;42.158;24.748;2023-07-08T15:05:29;99623.72;;;29.01;50.10
18527;BME280;9393;42.158;24.748;2023-07-08T15:08:35;99637.69;;;29.55;47.83
18527;BME280;9393;42.158;24.748;2023-07-08T15:11:39;99617.88;;;29.71;47.74
18527;BME280;9393;42.158;24.748;2023-07-08T15:14:43;99620.84;;;29.80;47.53
18527;BME280;9393;42.158;24.748;2023-07-08T15:17:47;99622.16;;;29.67;47.52
18527;BME280;9393;42.158;24.748;2023-07-08T15:20:51;99617.25;;;29.44;47.30
18527;BME280;9393;42.158;24.748;2023-07-08T15:23:56;99619.78;;;29.19;47.12
18527;BME280;9393;42.158;24.748;2023-07-08T15:27:02;99619.03;;;29.23;47.46
18527;BME280;9393;42.158;24.748;2023-07-08T15:30:15;99620.19;;;29.37;47.41
18527;BME280;9393;42.158;24.748;2023-07-08T15:33:19;99602.00;;;29.02;47.15
18527;BME280;9393;42.158;24.748;2023-07-08T15:36:23;99621.66;;;29.18;47.02
18527;BME280;9393;42.158;24.748;2023-07-08T15:39:28;99620.16;;;28.90;46.86
18527;BME280;9393;42.158;24.748;2023-07-08T15:42:32;99611.22;;;28.80;47.66
18527;BME280;9393;42.158;24.748;2023-07-08T15:45:37;99604.63;;;28.92;47.39
18527;BME280;9393;42.158;24.748;2023-07-08T15:48:42;99610.47;;;28.84;46.95
18527;BME280;9393;42.158;24.748;2023-07-08T15:51:46;99608.47;;;29.12;46.91
18527;BME280;9393;42.158;24.748;2023-07-08T15:54:52;99608.13;;;28.98;47.76
18527;BME280;9393;42.158;24.748;2023-07-08T15:57:59;99615.84;;;29.26;46.32
18527;BME280;9393;42.158;24.748;2023-07-08T16:01:04;99626.94;;;29.50;46.23
18527;BME280;9393;42.158;24.748;2023-07-08T16:04:18;99620.28;;;29.57;47.02
18527;BME280;9393;42.158;24.748;2023-07-08T16:07:25;99621.03;;;29.53;47.34
18527;BME280;9393;42.158;24.748;2023-07-08T16:10:30;99619.22;;;29.69;46.88
18527;BME280;9393;42.158;24.748;2023-07-08T16:13:36;99612.50;;;29.71;47.26
18527;BME280;9393;42.158;24.748;2023-07-08T16:16:42;99616.84;;;29.82;46.52
18527;BME280;9393;42.158;24.748;2023-07-08T16:19:46;99615.56;;;29.28;48.35
18527;BME280;9393;42.158;24.748;2023-07-08T16:22:50;99618.16;;;29.18;48.28
18527;BME280;9393;42.158;24.748;2023-07-08T16:25:56;99619.06;;;29.28;48.09
18527;BME280;9393;42.158;24.748;2023-07-08T16:29:00;99615.38;;;28.92;49.13